Stena Suede — ZCEF5 — position and weather

sailwx.info

Track history (hours):
 
Tides and Currents Weather Stations Pressure Air Temp Water Temp Dewpoint Dewpoint Depression Visibility Wind Speed Wind Dir Waves Ship Positions

Stena Suede

Last reported at 2017-Nov-18 23:40 UTC. Time now 2017-Dec-18 03:33 UTC.
Position N 29°37' W 093°19'.
Warning: this ship's position is 29 days out of date.

Length 274 m; draft 9 m.

Type: Tanker. MMSI: 310622000.

Date/timePositionNaut miles runAvg speedWind from/ knotsBaromVisibWave heightAir tempDewpointWater temp
2017-Nov-18 23:40N 29°37' W 093°19'14 9.8
2017-Nov-18 22:12N 29°51' W 093°21'2 8.5
2017-Nov-18 22:00N 29°53' W 093°21'5 8.1
2017-Nov-18 21:23N 29°58' W 093°20'3 7.3
2017-Nov-18 21:00N 30°00' W 093°20'4 7.1
2017-Nov-18 20:30N 30°04' W 093°20'4 7.3
2017-Nov-18 20:00N 30°08' W 093°20'2 4.3
2017-Nov-18 19:30N 30°10' W 093°19'1 2.7
2017-Nov-18 18:59N 30°11' W 093°18'0 0.2
2017-Nov-18 18:29N 30°11' W 093°18'0 0.0
2017-Nov-18 17:59N 30°11' W 093°18'0 0.1
2017-Nov-18 17:29N 30°11' W 093°18'0 0.0
2017-Nov-18 16:59N 30°11' W 093°18'0 0.0
2017-Nov-18 16:29N 30°11' W 093°18'0 0.1
2017-Nov-18 15:59N 30°11' W 093°18'0 0.0
2017-Nov-18 15:29N 30°11' W 093°18'0 0.0
2017-Nov-18 14:59N 30°11' W 093°18'0 0.2
2017-Nov-18 14:30N 30°11' W 093°19'0 0.8
2017-Nov-18 14:00N 30°11' W 093°19'1 2.4
2017-Nov-18 13:28N 30°10' W 093°20'0 0.0
2017-Nov-18 12:58N 30°10' W 093°20'0 0.0
2017-Nov-18 12:28N 30°10' W 093°20'0 0.0
2017-Nov-18 12:01N 30°10' W 093°20'0 0.0
2017-Nov-18 11:31N 30°10' W 093°20'0 0.0
2017-Nov-17 03:46N 30°10' W 093°20'0 0.0
2017-Nov-17 03:31N 30°10' W 093°20'0 0.0
2017-Nov-17 03:00N 30°10' W 093°20'0 0.8
2017-Nov-17 02:31N 30°09' W 093°20'2 4.4
2017-Nov-17 02:01N 30°07' W 093°20'3 5.5
2017-Nov-17 01:30N 30°04' W 093°20'3 5.7
2017-Nov-17 01:01N 30°01' W 093°20'3 6.9
2017-Nov-17 00:31N 29°58' W 093°20'4 8.2
2017-Nov-17 00:00N 29°54' W 093°21'5 9.2
2017-Nov-16 23:30N 29°49' W 093°21'24 3.2
2017-Nov-16 15:56N 29°26' W 093°12'0 0.0
2017-Nov-16 15:20N 29°26' W 093°12'0 0.0
2017-Nov-16 13:41N 29°26' W 093°12'0 0.1
2017-Nov-16 13:29N 29°26' W 093°12'0 0.0
2017-Nov-16 12:53N 29°26' W 093°12'0 0.0
2017-Nov-16 12:26N 29°26' W 093°12'0 0.0
2017-Nov-16 11:53N 29°26' W 093°12'0 0.0
2017-Nov-16 10:17N 29°26' W 093°12'0 0.0
2017-Nov-16 09:56N 29°26' W 093°12'0 0.0
2017-Nov-16 08:05N 29°26' W 093°12'0 0.0
2017-Nov-16 07:59N 29°26' W 093°12'0 0.0
2017-Nov-16 07:29N 29°26' W 093°12'1 0.3
2017-Nov-16 04:38N 29°26' W 093°13'1 6.2
2017-Nov-16 04:30N 29°25' W 093°13'510.2
2017-Nov-16 03:59N 29°20' W 093°13'  
Track history (hours):
 
Tides and Currents Weather Stations Pressure Air Temp Water Temp Dewpoint Dewpoint Depression Visibility Wind Speed Wind Dir Waves Ship Positions

Stena Suede

Last reported at 2017-Nov-18 23:40 UTC. Time now 2017-Dec-18 03:33 UTC.
Position N 29°37' W 093°19'.
Warning: this ship's position is 29 days out of date.

Length 274 m; draft 9 m.

Type: Tanker. MMSI: 310622000.

Date/timePositionNaut miles runAvg speedWind from/ knotsBaromVisibWave heightAir tempDewpointWater temp
2017-Nov-18 23:40N 29°37' W 093°19'14 9.8
2017-Nov-18 22:12N 29°51' W 093°21'2 8.5
2017-Nov-18 22:00N 29°53' W 093°21'5 8.1
2017-Nov-18 21:23N 29°58' W 093°20'3 7.3
2017-Nov-18 21:00N 30°00' W 093°20'4 7.1
2017-Nov-18 20:30N 30°04' W 093°20'4 7.3
2017-Nov-18 20:00N 30°08' W 093°20'2 4.3
2017-Nov-18 19:30N 30°10' W 093°19'1 2.7
2017-Nov-18 18:59N 30°11' W 093°18'0 0.2
2017-Nov-18 18:29N 30°11' W 093°18'0 0.0
2017-Nov-18 17:59N 30°11' W 093°18'0 0.1
2017-Nov-18 17:29N 30°11' W 093°18'0 0.0
2017-Nov-18 16:59N 30°11' W 093°18'0 0.0
2017-Nov-18 16:29N 30°11' W 093°18'0 0.1
2017-Nov-18 15:59N 30°11' W 093°18'0 0.0
2017-Nov-18 15:29N 30°11' W 093°18'0 0.0
2017-Nov-18 14:59N 30°11' W 093°18'0 0.2
2017-Nov-18 14:30N 30°11' W 093°19'0 0.8
2017-Nov-18 14:00N 30°11' W 093°19'1 2.4
2017-Nov-18 13:28N 30°10' W 093°20'0 0.0
2017-Nov-18 12:58N 30°10' W 093°20'0 0.0
2017-Nov-18 12:28N 30°10' W 093°20'0 0.0
2017-Nov-18 12:01N 30°10' W 093°20'0 0.0
2017-Nov-18 11:31N 30°10' W 093°20'0 0.0
2017-Nov-17 03:46N 30°10' W 093°20'0 0.0
2017-Nov-17 03:31N 30°10' W 093°20'0 0.0
2017-Nov-17 03:00N 30°10' W 093°20'0 0.8
2017-Nov-17 02:31N 30°09' W 093°20'2 4.4
2017-Nov-17 02:01N 30°07' W 093°20'3 5.5
2017-Nov-17 01:30N 30°04' W 093°20'3 5.7
2017-Nov-17 01:01N 30°01' W 093°20'3 6.9
2017-Nov-17 00:31N 29°58' W 093°20'4 8.2
2017-Nov-17 00:00N 29°54' W 093°21'5 9.2
2017-Nov-16 23:30N 29°49' W 093°21'24 3.2
2017-Nov-16 15:56N 29°26' W 093°12'0 0.0
2017-Nov-16 15:20N 29°26' W 093°12'0 0.0
2017-Nov-16 13:41N 29°26' W 093°12'0 0.1
2017-Nov-16 13:29N 29°26' W 093°12'0 0.0
2017-Nov-16 12:53N 29°26' W 093°12'0 0.0
2017-Nov-16 12:26N 29°26' W 093°12'0 0.0
2017-Nov-16 11:53N 29°26' W 093°12'0 0.0
2017-Nov-16 10:17N 29°26' W 093°12'0 0.0
2017-Nov-16 09:56N 29°26' W 093°12'0 0.0
2017-Nov-16 08:05N 29°26' W 093°12'0 0.0
2017-Nov-16 07:59N 29°26' W 093°12'0 0.0
2017-Nov-16 07:29N 29°26' W 093°12'1 0.3
2017-Nov-16 04:38N 29°26' W 093°13'1 6.2
2017-Nov-16 04:30N 29°25' W 093°13'510.2
2017-Nov-16 03:59N 29°20' W 093°13'  

Dump ship's entire track history